Time;durP1;ratioP1;P1;durP2;ratioP2;P2;SDS_P1;SDS_P2;PMS_P1;PMS_P2;Temp;Humidity;BMP_temperature;BMP_pressure;BME280_temperature;BME280_humidity;BME280_pressure;Samples;Min_cycle;Max_cycle;Signal;HPM_P1;HPM_P2
2022/06/29 00:01:34;;;;;;;8.57;2.72;;;;;;;;;;4878387;29;20052;-74
2022/06/29 00:04:04;;;;;;;13.02;3.33;;;;;;;;;;4860805;29;20067;-73
2022/06/29 00:06:35;;;;;;;5.10;2.85;;;;;;;;;;4887046;29;20053;-71
2022/06/29 00:09:05;;;;;;;6.57;2.97;;;;;;;;;;4834236;29;20064;-72
2022/06/29 00:11:35;;;;;;;5.22;2.88;;;;;;;;;;4857070;29;20052;-72
2022/06/29 00:14:05;;;;;;;9.38;3.70;;;;;;;;;;4838960;29;20058;-71
2022/06/29 00:16:36;;;;;;;8.60;3.25;;;;;;;;;;4823812;29;20058;-72
2022/06/29 00:19:07;;;;;;;10.05;3.67;;;;;;;;;;4808734;29;20106;-71
2022/06/29 00:21:37;;;;;;;6.75;3.53;;;;;;;;;;4793688;29;20057;-71
2022/06/29 00:24:08;;;;;;;8.82;3.33;;;;;;;;;;4838883;29;20534;-69
2022/06/29 00:26:38;;;;;;;11.50;3.63;;;;;;;;;;4838784;29;20073;-70
2022/06/29 00:29:08;;;;;;;8.98;4.05;;;;;;;;;;4823962;29;20515;-70
2022/06/29 00:31:39;;;;;;;10.65;4.65;;;;;;;;;;4838887;29;20062;-70
2022/06/29 00:34:09;;;;;;;6.35;3.92;;;;;;;;;;4823715;29;20057;-70
2022/06/29 00:36:40;;;;;;;7.55;3.80;;;;;;;;;;4838590;29;20109;-70
2022/06/29 00:39:11;;;;;;;9.27;4.32;;;;;;;;;;4838593;29;20058;-69
2022/06/29 00:41:45;;;;;;;8.70;3.55;;;;;;;;;;4838513;29;21120;-68
2022/06/29 00:44:18;;;;;;;8.25;4.20;;;;;;;;;;4856704;29;20061;-68
2022/06/29 00:46:56;;;;;;;7.93;4.45;;;;;;;;;;4856875;29;20061;-69
2022/06/29 00:49:28;;;;;;;9.63;4.70;;;;;;;;;;4878815;29;20068;-68
2022/06/29 00:52:05;;;;;;;10.88;4.18;;;;;;;;;;4894269;29;20063;-69
2022/06/29 00:54:47;;;;;;;7.40;4.13;;;;;;;;;;4894150;29;20073;-68
2022/06/29 00:57:20;;;;;;;14.65;4.20;;;;;;;;;;4859250;29;20053;-70
2022/06/29 00:59:54;;;;;;;7.55;4.40;;;;;;;;;;4860406;29;20057;-71
2022/06/29 01:02:32;;;;;;;8.63;4.50;;;;;;;;;;4826185;29;20050;-70
2022/06/29 01:05:04;;;;;;;11.68;5.05;;;;;;;;;;4856874;29;20072;-70
2022/06/29 01:07:36;;;;;;;9.15;4.85;;;;;;;;;;4856468;29;20065;-69
2022/06/29 01:10:07;;;;;;;10.32;4.75;;;;;;;;;;4801516;29;20059;-70
2022/06/29 01:12:37;;;;;;;15.10;4.53;;;;;;;;;;4802085;29;20058;-70
2022/06/29 01:15:09;;;;;;;9.40;4.95;;;;;;;;;;4801655;29;20066;-70
2022/06/29 01:17:40;;;;;;;8.57;4.20;;;;;;;;;;4801789;29;20062;-69
2022/06/29 01:20:12;;;;;;;10.88;4.43;;;;;;;;;;4801509;29;20054;-69
2022/06/29 01:22:42;;;;;;;11.13;4.55;;;;;;;;;;4753868;30;20056;-69
2022/06/29 01:25:13;;;;;;;11.77;4.40;;;;;;;;;;4747680;30;20056;-68
2022/06/29 01:27:44;;;;;;;8.60;4.47;;;;;;;;;;4748200;30;20413;-69
2022/06/29 01:30:14;;;;;;;9.98;4.72;;;;;;;;;;4765653;30;20063;-68
2022/06/29 01:32:45;;;;;;;7.55;4.18;;;;;;;;;;4766054;30;20509;-68
2022/06/29 01:35:16;;;;;;;11.80;4.38;;;;;;;;;;4754459;30;20060;-68
2022/06/29 01:37:47;;;;;;;9.30;4.97;;;;;;;;;;4748146;30;20068;-68
2022/06/29 01:40:17;;;;;;;9.48;4.30;;;;;;;;;;4779547;29;20059;-68
2022/06/29 01:42:47;;;;;;;7.90;4.40;;;;;;;;;;4771641;29;20079;-68
2022/06/29 01:45:17;;;;;;;9.93;4.35;;;;;;;;;;4756724;29;20063;-67
2022/06/29 01:47:47;;;;;;;9.27;4.43;;;;;;;;;;4820730;29;20454;-68
2022/06/29 01:50:18;;;;;;;9.77;4.70;;;;;;;;;;4837969;29;20073;-68
2022/06/29 01:52:48;;;;;;;7.85;4.30;;;;;;;;;;4837961;29;20498;-68
2022/06/29 01:55:18;;;;;;;10.55;4.43;;;;;;;;;;4838051;29;20103;-68
2022/06/29 01:57:49;;;;;;;7.65;4.50;;;;;;;;;;4837903;29;20062;-68
2022/06/29 02:00:19;;;;;;;8.73;4.30;;;;;;;;;;4771053;29;20062;-69
2022/06/29 02:02:49;;;;;;;9.73;4.97;;;;;;;;;;4834177;29;20058;-68
2022/06/29 02:05:19;;;;;;;7.78;4.10;;;;;;;;;;4820329;29;20070;-69
2022/06/29 02:07:50;;;;;;;7.53;4.20;;;;;;;;;;4822482;29;20177;-69
2022/06/29 02:10:20;;;;;;;8.20;4.13;;;;;;;;;;4822991;29;20546;-69
2022/06/29 02:12:51;;;;;;;7.43;3.95;;;;;;;;;;4822745;29;20078;-69
2022/06/29 02:15:23;;;;;;;7.75;4.55;;;;;;;;;;4823048;29;20571;-70
2022/06/29 02:17:54;;;;;;;7.65;3.20;;;;;;;;;;4822614;29;20419;-68
2022/06/29 02:20:24;;;;;;;5.88;2.40;;;;;;;;;;4822225;29;20058;-68
2022/06/29 02:22:56;;;;;;;5.43;2.60;;;;;;;;;;4807473;29;20066;-70
2022/06/29 02:25:26;;;;;;;3.85;2.10;;;;;;;;;;4822504;29;20067;-70
2022/06/29 02:27:56;;;;;;;4.35;1.88;;;;;;;;;;4822485;29;20062;-69
2022/06/29 02:36:05;;;;;;;3.08;1.30;;;;;;;;;;4748036;30;20060;-68
2022/06/29 02:38:35;;;;;;;3.95;1.10;;;;;;;;;;4795544;29;20066;-69
2022/06/29 02:41:06;;;;;;;2.50;1.08;;;;;;;;;;4832414;29;20173;-69
2022/06/29 02:43:37;;;;;;;3.00;1.38;;;;;;;;;;4822235;29;20058;-70
2022/06/29 02:46:07;;;;;;;2.42;1.10;;;;;;;;;;4806951;29;20173;-69
2022/06/29 02:48:37;;;;;;;3.13;1.27;;;;;;;;;;4821879;29;20058;-69
2022/06/29 02:51:08;;;;;;;4.63;1.00;;;;;;;;;;4822193;29;20069;-69
2022/06/29 02:53:39;;;;;;;1.90;0.90;;;;;;;;;;4821893;29;20081;-70
2022/06/29 02:56:09;;;;;;;3.05;1.23;;;;;;;;;;4807230;29;20553;-68
2022/06/29 02:58:39;;;;;;;2.53;0.90;;;;;;;;;;4822092;29;20504;-68
2022/06/29 03:01:09;;;;;;;2.30;1.10;;;;;;;;;;4821815;29;20069;-69
2022/06/29 03:03:40;;;;;;;3.25;1.20;;;;;;;;;;4785816;29;20074;-69
2022/06/29 03:06:10;;;;;;;2.63;1.00;;;;;;;;;;4785837;29;20067;-68
2022/06/29 03:08:41;;;;;;;3.20;1.38;;;;;;;;;;4785429;29;20051;-68
2022/06/29 03:11:11;;;;;;;1.77;0.70;;;;;;;;;;4764014;29;20060;-69
2022/06/29 03:13:41;;;;;;;4.82;0.80;;;;;;;;;;4785511;29;20452;-69
2022/06/29 03:16:12;;;;;;;1.95;0.88;;;;;;;;;;4785432;29;20059;-69
2022/06/29 03:18:42;;;;;;;2.08;1.00;;;;;;;;;;4784433;29;20058;-68
2022/06/29 03:21:12;;;;;;;4.80;1.00;;;;;;;;;;4785523;29;20059;-68
2022/06/29 03:23:44;;;;;;;2.75;1.23;;;;;;;;;;4785390;29;20424;-69
2022/06/29 03:26:14;;;;;;;3.83;0.95;;;;;;;;;;4794901;29;20055;-68
2022/06/29 03:28:44;;;;;;;2.45;1.00;;;;;;;;;;4803451;29;20082;-68
2022/06/29 03:31:14;;;;;;;1.95;0.80;;;;;;;;;;4812533;29;20061;-69
2022/06/29 03:33:45;;;;;;;1.90;0.90;;;;;;;;;;4776234;29;20412;-69
2022/06/29 03:36:16;;;;;;;2.83;1.13;;;;;;;;;;4821404;29;20631;-69
2022/06/29 03:38:47;;;;;;;1.55;0.70;;;;;;;;;;4821462;29;20065;-68
2022/06/29 03:41:17;;;;;;;1.48;0.90;;;;;;;;;;4815637;29;20062;-69
2022/06/29 03:43:48;;;;;;;2.45;0.82;;;;;;;;;;4839084;29;20061;-68
2022/06/29 03:46:18;;;;;;;1.63;0.63;;;;;;;;;;4815392;29;20089;-69
2022/06/29 03:48:48;;;;;;;2.42;0.90;;;;;;;;;;4854113;29;20065;-69
2022/06/29 03:51:19;;;;;;;1.45;0.60;;;;;;;;;;4857869;29;20064;-68
2022/06/29 03:53:49;;;;;;;2.33;0.85;;;;;;;;;;4823971;29;20065;-69
2022/06/29 03:56:20;;;;;;;3.38;0.88;;;;;;;;;;4809061;29;20585;-68
2022/06/29 03:58:50;;;;;;;3.15;0.88;;;;;;;;;;4824199;29;20066;-70
2022/06/29 04:01:21;;;;;;;2.47;0.98;;;;;;;;;;4839176;29;20065;-69
2022/06/29 04:03:51;;;;;;;2.30;0.80;;;;;;;;;;4839126;29;20054;-70
2022/06/29 04:06:21;;;;;;;1.63;0.65;;;;;;;;;;4839021;29;20057;-68
2022/06/29 04:08:52;;;;;;;3.35;0.60;;;;;;;;;;4839041;29;21197;-68
2022/06/29 04:14:11;;;;;;;1.50;0.63;;;;;;;;;;4838960;29;20061;-69
2022/06/29 04:16:41;;;;;;;1.52;0.70;;;;;;;;;;4857244;29;20076;-69
2022/06/29 04:19:12;;;;;;;1.15;0.93;;;;;;;;;;4857169;29;20057;-69
2022/06/29 04:21:42;;;;;;;2.40;0.65;;;;;;;;;;4846241;29;20487;-68
2022/06/29 04:24:14;;;;;;;1.42;0.60;;;;;;;;;;4838879;29;20185;-68
2022/06/29 04:26:45;;;;;;;3.25;0.70;;;;;;;;;;4868331;29;20049;-69
2022/06/29 04:29:15;;;;;;;1.00;0.52;;;;;;;;;;4841454;29;20052;-69
2022/06/29 04:31:45;;;;;;;2.67;0.60;;;;;;;;;;4857243;29;20204;-68
2022/06/29 04:34:16;;;;;;;1.25;0.60;;;;;;;;;;4857091;29;20054;-68
2022/06/29 04:36:47;;;;;;;1.42;0.43;;;;;;;;;;4857211;29;20054;-68
2022/06/29 04:39:17;;;;;;;2.60;0.68;;;;;;;;;;4841685;29;20099;-69
2022/06/29 04:41:48;;;;;;;1.30;0.60;;;;;;;;;;4857173;29;20068;-69
2022/06/29 04:44:18;;;;;;;2.90;0.50;;;;;;;;;;4841585;29;20053;-69
2022/06/29 04:46:48;;;;;;;2.08;0.52;;;;;;;;;;4856978;29;20088;-69
2022/06/29 04:49:19;;;;;;;1.98;0.50;;;;;;;;;;4857099;29;20057;-69
2022/06/29 04:51:50;;;;;;;0.90;0.40;;;;;;;;;;4857155;29;20073;-69
2022/06/29 04:54:20;;;;;;;1.15;0.50;;;;;;;;;;4838396;29;20054;-69
2022/06/29 04:56:50;;;;;;;1.42;0.50;;;;;;;;;;4838525;29;20061;-69
2022/06/29 04:59:21;;;;;;;0.82;0.50;;;;;;;;;;4838547;29;20054;-69
2022/06/29 05:01:56;;;;;;;0.93;0.50;;;;;;;;;;4793384;29;20240;-69
2022/06/29 05:04:26;;;;;;;2.40;0.50;;;;;;;;;;4828760;29;20085;-69
2022/06/29 05:06:57;;;;;;;0.50;0.30;;;;;;;;;;4839737;29;20065;-70
2022/06/29 05:09:27;;;;;;;1.35;0.47;;;;;;;;;;4856898;29;20058;-69
2022/06/29 05:11:57;;;;;;;0.68;0.30;;;;;;;;;;4856706;29;20053;-69
2022/06/29 05:14:28;;;;;;;0.70;0.38;;;;;;;;;;4856835;29;20058;-69
2022/06/29 05:16:58;;;;;;;0.70;0.50;;;;;;;;;;4826373;29;20494;-69
2022/06/29 05:19:28;;;;;;;1.27;0.50;;;;;;;;;;4856751;29;20476;-69
2022/06/29 05:21:58;;;;;;;0.45;0.30;;;;;;;;;;4856618;29;20061;-70
2022/06/29 05:24:29;;;;;;;1.25;0.40;;;;;;;;;;4860012;29;20495;-70
2022/06/29 05:26:59;;;;;;;2.20;0.60;;;;;;;;;;4878365;29;20457;-69
2022/06/29 05:29:29;;;;;;;0.93;0.40;;;;;;;;;;4862730;29;20061;-69
2022/06/29 05:32:00;;;;;;;0.65;0.20;;;;;;;;;;4893897;29;20718;-69
2022/06/29 05:34:30;;;;;;;1.95;0.20;;;;;;;;;;4893563;29;20096;-70
2022/06/29 05:37:00;;;;;;;1.10;0.50;;;;;;;;;;4848792;29;20060;-69
2022/06/29 05:39:30;;;;;;;5.45;0.50;;;;;;;;;;4893681;29;20063;-69
2022/06/29 05:42:01;;;;;;;1.02;0.40;;;;;;;;;;4896945;29;20048;-69
2022/06/29 05:44:31;;;;;;;0.40;0.20;;;;;;;;;;4899722;29;20051;-70
2022/06/29 05:47:03;;;;;;;1.25;0.43;;;;;;;;;;4899489;29;20049;-70
2022/06/29 05:49:35;;;;;;;0.60;0.30;;;;;;;;;;4867291;29;20417;-69
2022/06/29 05:52:06;;;;;;;0.95;0.22;;;;;;;;;;4897216;29;20048;-69
2022/06/29 05:54:36;;;;;;;0.40;0.30;;;;;;;;;;4897349;29;20561;-69
2022/06/29 05:57:07;;;;;;;4.22;0.30;;;;;;;;;;4897181;29;20058;-69
2022/06/29 05:59:37;;;;;;;2.45;0.20;;;;;;;;;;4897262;29;20049;-69
2022/06/29 06:02:07;;;;;;;0.40;0.25;;;;;;;;;;4897233;29;20067;-70
2022/06/29 06:04:38;;;;;;;1.65;0.35;;;;;;;;;;4896834;29;20064;-69
2022/06/29 06:07:08;;;;;;;0.40;0.20;;;;;;;;;;4897032;29;20052;-69
2022/06/29 06:09:38;;;;;;;3.05;0.20;;;;;;;;;;4897033;29;20056;-70
2022/06/29 06:12:08;;;;;;;0.30;0.20;;;;;;;;;;4897021;29;20833;-70
2022/06/29 06:14:39;;;;;;;0.57;0.20;;;;;;;;;;4897111;29;20083;-70
2022/06/29 06:17:10;;;;;;;0.10;0.10;;;;;;;;;;4897021;29;20065;-70
2022/06/29 06:19:40;;;;;;;0.43;0.20;;;;;;;;;;4850566;29;20097;-69
2022/06/29 06:22:10;;;;;;;2.75;0.20;;;;;;;;;;4866026;29;20057;-69
2022/06/29 06:24:40;;;;;;;0.45;0.25;;;;;;;;;;4866611;29;20064;-69
2022/06/29 06:27:11;;;;;;;0.40;0.10;;;;;;;;;;4881738;29;20056;-71
2022/06/29 06:29:42;;;;;;;0.43;0.20;;;;;;;;;;4856703;29;20130;-69
2022/06/29 06:32:12;;;;;;;0.20;0.20;;;;;;;;;;4866029;29;20513;-69
2022/06/29 06:34:42;;;;;;;0.30;0.10;;;;;;;;;;4859101;29;20057;-70
2022/06/29 06:37:12;;;;;;;0.38;0.20;;;;;;;;;;4859185;29;20061;-69
2022/06/29 06:41:21;;;;;;;0.40;0.10;;;;;;;;;;4859457;29;20056;-70
2022/06/29 06:42:33;;;;;;;0.38;0.10;;;;;;;;;;4859265;29;20045;-69
2022/06/29 06:45:04;;;;;;;0.30;0.10;;;;;;;;;;4807043;29;20055;-69
2022/06/29 06:47:34;;;;;;;0.40;0.10;;;;;;;;;;4822532;29;20058;-69
2022/06/29 06:50:05;;;;;;;0.73;0.28;;;;;;;;;;4807682;29;20508;-69
2022/06/29 06:52:36;;;;;;;0.10;0.10;;;;;;;;;;4822127;29;20058;-69
2022/06/29 06:55:06;;;;;;;0.10;0.10;;;;;;;;;;4807103;29;20062;-69
2022/06/29 06:57:37;;;;;;;0.13;0.13;;;;;;;;;;4822277;29;20067;-69
2022/06/29 07:00:09;;;;;;;0.20;0.20;;;;;;;;;;4791961;29;20063;-69
2022/06/29 07:02:40;;;;;;;0.17;0.10;;;;;;;;;;4822195;29;20062;-69
2022/06/29 07:05:10;;;;;;;0.20;0.10;;;;;;;;;;4822118;29;20066;-69
2022/06/29 07:07:40;;;;;;;0.60;0.40;;;;;;;;;;4803660;29;20059;-71
2022/06/29 07:10:11;;;;;;;1.38;0.68;;;;;;;;;;4803593;29;20078;-69
2022/06/29 07:12:41;;;;;;;1.65;0.70;;;;;;;;;;4791585;29;20059;-69
2022/06/29 07:15:12;;;;;;;1.80;0.60;;;;;;;;;;4803788;29;20063;-69
2022/06/29 07:17:42;;;;;;;2.03;0.52;;;;;;;;;;4773652;29;20055;-70
2022/06/29 07:20:12;;;;;;;0.22;0.20;;;;;;;;;;4773871;29;20059;-69
2022/06/29 07:22:42;;;;;;;0.20;0.10;;;;;;;;;;4782316;29;20063;-69
2022/06/29 07:25:12;;;;;;;4.47;0.45;;;;;;;;;;4821706;29;20062;-69
2022/06/29 07:27:43;;;;;;;0.40;0.20;;;;;;;;;;4821668;29;20073;-69
2022/06/29 07:30:14;;;;;;;0.35;0.20;;;;;;;;;;4821488;29;20066;-72
2022/06/29 07:32:44;;;;;;;1.10;0.32;;;;;;;;;;4776538;29;20062;-70
2022/06/29 07:35:14;;;;;;;0.03;0.00;;;;;;;;;;4776570;29;20491;-70
2022/06/29 07:37:45;;;;;;;0.10;0.10;;;;;;;;;;4821498;29;20102;-69
2022/06/29 07:40:15;;;;;;;0.10;0.10;;;;;;;;;;4821554;29;20054;-71
2022/06/29 07:42:45;;;;;;;0.20;0.20;;;;;;;;;;4821375;29;20549;-69
2022/06/29 07:45:16;;;;;;;0.50;0.13;;;;;;;;;;4809877;29;20054;-70
2022/06/29 07:47:53;;;;;;;0.30;0.10;;;;;;;;;;4859525;29;20536;-70
2022/06/29 07:50:23;;;;;;;0.40;0.10;;;;;;;;;;4887881;29;20071;-68
2022/06/29 07:52:53;;;;;;;0.00;0.00;;;;;;;;;;4897306;29;20052;-69
2022/06/29 07:55:24;;;;;;;0.10;0.10;;;;;;;;;;4897449;29;20433;-69
2022/06/29 07:57:55;;;;;;;0.20;0.03;;;;;;;;;;4897190;29;20052;-69
2022/06/29 08:00:26;;;;;;;0.10;0.10;;;;;;;;;;4827040;29;20068;-69
2022/06/29 08:02:56;;;;;;;0.10;0.10;;;;;;;;;;4857182;29;20499;-68
2022/06/29 08:05:26;;;;;;;0.20;0.05;;;;;;;;;;4857625;29;20064;-68
2022/06/29 08:07:57;;;;;;;0.15;0.10;;;;;;;;;;4857615;29;20050;-68
2022/06/29 08:10:27;;;;;;;0.15;0.10;;;;;;;;;;4857745;29;20041;-68
2022/06/29 08:12:59;;;;;;;0.30;0.10;;;;;;;;;;4857500;29;20069;-68
2022/06/29 08:15:29;;;;;;;0.10;0.10;;;;;;;;;;4842635;29;20053;-68
2022/06/29 08:17:59;;;;;;;0.20;0.10;;;;;;;;;;4838650;29;20058;-68
2022/06/29 08:20:31;;;;;;;0.22;0.10;;;;;;;;;;4802304;29;20062;-68
2022/06/29 08:23:01;;;;;;;0.10;0.10;;;;;;;;;;4802346;29;20074;-68
2022/06/29 08:25:31;;;;;;;0.00;0.00;;;;;;;;;;4772647;29;20058;-68
2022/06/29 08:28:02;;;;;;;0.22;0.10;;;;;;;;;;4766339;30;20054;-68
2022/06/29 08:30:33;;;;;;;0.10;0.00;;;;;;;;;;4752034;30;20104;-68
2022/06/29 08:33:03;;;;;;;0.10;0.10;;;;;;;;;;4766534;30;20416;-68
2022/06/29 08:35:34;;;;;;;0.10;0.10;;;;;;;;;;4766330;30;20509;-68
2022/06/29 08:38:04;;;;;;;0.10;0.10;;;;;;;;;;4784776;29;20074;-68
2022/06/29 08:40:44;;;;;;;0.03;0.00;;;;;;;;;;4802351;29;20059;-68
2022/06/29 08:43:20;;;;;;;0.00;0.00;;;;;;;;;;4787748;29;20468;-68
2022/06/29 08:45:52;;;;;;;0.20;0.10;;;;;;;;;;4787755;29;20063;-68
2022/06/29 08:48:22;;;;;;;0.10;0.10;;;;;;;;;;4802112;29;20063;-68
2022/06/29 08:50:55;;;;;;;0.15;0.10;;;;;;;;;;4802484;29;20169;-68
2022/06/29 08:53:26;;;;;;;0.00;0.00;;;;;;;;;;4787532;29;20059;-69
2022/06/29 08:56:00;;;;;;;0.00;0.00;;;;;;;;;;4813405;29;20063;-68
2022/06/29 08:58:34;;;;;;;0.00;0.00;;;;;;;;;;4855881;29;20060;-69
2022/06/29 09:01:04;;;;;;;0.10;0.10;;;;;;;;;;4875761;29;20063;-68
2022/06/29 09:03:34;;;;;;;0.00;0.00;;;;;;;;;;4844411;29;20104;-69
2022/06/29 09:06:06;;;;;;;0.00;0.00;;;;;;;;;;4888012;29;20064;-68
2022/06/29 09:08:37;;;;;;;0.43;0.10;;;;;;;;;;4893977;29;20413;-69
2022/06/29 09:11:29;;;;;;;4.10;0.22;;;;;;;;;;4847610;29;20077;-68
2022/06/29 09:14:21;;;;;;;0.10;0.10;;;;;;;;;;4894042;29;20056;-68
2022/06/29 09:16:53;;;;;;;0.20;0.00;;;;;;;;;;4897159;29;20055;-68
2022/06/29 09:19:27;;;;;;;0.20;0.10;;;;;;;;;;4863227;29;20053;-68
2022/06/29 09:21:59;;;;;;;0.43;0.43;;;;;;;;;;4878961;29;20120;-68
2022/06/29 09:24:34;;;;;;;0.43;0.43;;;;;;;;;;4879129;29;20068;-68
2022/06/29 09:27:25;;;;;;;0.10;0.10;;;;;;;;;;4879178;29;20080;-68
2022/06/29 09:29:56;;;;;;;0.00;0.00;;;;;;;;;;4823271;29;20058;-68
2022/06/29 09:32:28;;;;;;;6.38;1.92;;;;;;;;;;4793751;29;20713;-68
2022/06/29 09:34:59;;;;;;;18.60;5.93;;;;;;;;;;4811578;29;20054;-68
2022/06/29 09:37:29;;;;;;;1.50;0.70;;;;;;;;;;4841898;29;20057;-68
2022/06/29 09:39:59;;;;;;;1.73;0.75;;;;;;;;;;4796633;29;20092;-68
2022/06/29 09:42:29;;;;;;;0.30;0.20;;;;;;;;;;4841797;29;20531;-68
2022/06/29 09:44:59;;;;;;;0.30;0.20;;;;;;;;;;4841869;29;20062;-68
2022/06/29 09:47:30;;;;;;;0.47;0.20;;;;;;;;;;4841709;29;20065;-68
2022/06/29 09:50:02;;;;;;;0.28;0.20;;;;;;;;;;4805020;29;20050;-68
2022/06/29 09:52:35;;;;;;;0.70;0.35;;;;;;;;;;4786875;29;20051;-68
2022/06/29 09:55:06;;;;;;;0.45;0.10;;;;;;;;;;4742748;30;20063;-67
2022/06/29 09:57:39;;;;;;;0.10;0.10;;;;;;;;;;4799889;29;20054;-67
2022/06/29 10:02:58;;;;;;;0.55;0.55;;;;;;;;;;4786975;29;20394;-67
2022/06/29 10:05:54;;;;;;;1.20;0.20;;;;;;;;;;4786571;29;20063;-69
2022/06/29 10:08:19;;;;;;;0.00;0.00;;;;;;;;;;4815748;29;20058;-69
2022/06/29 10:13:39;;;;;;;0.10;0.10;;;;;;;;;;4822864;29;20066;-69
2022/06/29 10:13:58;;;;;;;0.55;0.55;;;;;;;;;;4804323;29;20051;-69
2022/06/29 10:16:32;;;;;;;0.10;0.10;;;;;;;;;;4822561;29;20053;-70
2022/06/29 10:19:21;;;;;;;0.15;0.15;;;;;;;;;;4822557;29;20062;-69
2022/06/29 10:21:51;;;;;;;0.60;0.60;;;;;;;;;;4807292;29;20058;-69
2022/06/29 10:24:22;;;;;;;0.40;0.17;;;;;;;;;;4821993;29;20061;-69
2022/06/29 10:26:52;;;;;;;3.10;0.40;;;;;;;;;;4798116;29;20498;-69
2022/06/29 10:29:22;;;;;;;2.55;0.40;;;;;;;;;;4856322;29;20431;-69
2022/06/29 10:31:59;;;;;;;0.10;0.10;;;;;;;;;;4810586;29;20058;-69
2022/06/29 10:37:11;;;;;;;0.43;0.32;;;;;;;;;;4837674;29;20077;-69
2022/06/29 10:39:50;;;;;;;0.10;0.10;;;;;;;;;;4807107;29;20535;-67
2022/06/29 10:45:17;;;;;;;0.95;0.10;;;;;;;;;;4822260;29;20058;-69
2022/06/29 10:48:12;;;;;;;0.90;0.20;;;;;;;;;;4822194;29;20058;-69
2022/06/29 10:50:45;;;;;;;1.48;0.30;;;;;;;;;;4807252;29;20166;-70
2022/06/29 10:53:18;;;;;;;0.28;0.20;;;;;;;;;;4821934;29;20058;-69
2022/06/29 10:55:54;;;;;;;0.40;0.25;;;;;;;;;;4822038;29;20435;-69
2022/06/29 10:58:25;;;;;;;0.10;0.10;;;;;;;;;;4792004;29;20054;-70
2022/06/29 11:00:56;;;;;;;0.20;0.20;;;;;;;;;;4807487;29;20054;-70
2022/06/29 11:03:27;;;;;;;0.40;0.10;;;;;;;;;;4825366;29;20415;-70
2022/06/29 11:12:01;;;;;;;0.20;0.10;;;;;;;;;;4808874;29;20062;-69
2022/06/29 11:20:20;;;;;;;0.43;0.43;;;;;;;;;;4821722;29;20066;-70
2022/06/29 11:22:54;;;;;;;0.40;0.10;;;;;;;;;;4806959;29;20066;-70
2022/06/29 11:25:25;;;;;;;0.82;0.20;;;;;;;;;;4821812;29;20070;-70
2022/06/29 11:27:55;;;;;;;0.43;0.20;;;;;;;;;;4821673;29;20050;-69
2022/06/29 11:30:25;;;;;;;0.13;0.10;;;;;;;;;;4803208;29;20122;-69
2022/06/29 11:32:55;;;;;;;0.20;0.10;;;;;;;;;;4767178;30;20063;-69
2022/06/29 11:35:26;;;;;;;0.32;0.10;;;;;;;;;;4753058;30;20202;-69
2022/06/29 11:38:01;;;;;;;0.30;0.10;;;;;;;;;;4774715;29;20070;-69
2022/06/29 11:40:35;;;;;;;0.30;0.10;;;;;;;;;;4803452;29;20051;-69
2022/06/29 11:43:09;;;;;;;0.35;0.20;;;;;;;;;;4803007;29;20059;-69
2022/06/29 11:46:05;;;;;;;0.22;0.20;;;;;;;;;;4803189;29;20062;-69
2022/06/29 11:49:33;;;;;;;0.68;0.20;;;;;;;;;;4735362;30;20072;-68
2022/06/29 11:51:28;;;;;;;0.93;0.30;;;;;;;;;;4749100;30;20834;-69
2022/06/29 11:54:01;;;;;;;0.38;0.28;;;;;;;;;;4749366;30;20078;-68
2022/06/29 11:56:32;;;;;;;0.25;0.10;;;;;;;;;;4734673;30;20214;-69
2022/06/29 11:59:06;;;;;;;0.10;0.10;;;;;;;;;;4749337;30;20064;-69
2022/06/29 12:01:37;;;;;;;0.20;0.10;;;;;;;;;;4749301;30;20510;-69
2022/06/29 12:04:07;;;;;;;0.28;0.28;;;;;;;;;;4749032;30;20064;-69
2022/06/29 12:06:38;;;;;;;0.10;0.10;;;;;;;;;;4748942;30;20060;-69
2022/06/29 12:09:09;;;;;;;0.00;0.00;;;;;;;;;;4766335;30;20067;-69
2022/06/29 12:11:39;;;;;;;0.22;0.08;;;;;;;;;;4818739;29;20063;-69
2022/06/29 12:14:10;;;;;;;0.10;0.10;;;;;;;;;;4806188;29;20058;-69
2022/06/29 12:16:40;;;;;;;0.32;0.32;;;;;;;;;;4820957;29;20055;-69
2022/06/29 12:19:11;;;;;;;0.00;0.00;;;;;;;;;;4821078;29;20089;-69
2022/06/29 12:21:42;;;;;;;0.10;0.10;;;;;;;;;;4820736;29;20516;-69
2022/06/29 12:24:12;;;;;;;0.32;0.10;;;;;;;;;;4784364;30;20051;-69
2022/06/29 12:26:43;;;;;;;0.10;0.03;;;;;;;;;;4823841;29;20095;-69
2022/06/29 12:29:14;;;;;;;0.50;0.20;;;;;;;;;;4859699;29;20430;-69
2022/06/29 12:31:44;;;;;;;0.50;0.45;;;;;;;;;;4860770;29;20057;-69
2022/06/29 12:34:16;;;;;;;0.40;0.20;;;;;;;;;;4830465;29;20068;-69
2022/06/29 12:36:58;;;;;;;0.22;0.20;;;;;;;;;;4848650;29;20049;-69
2022/06/29 12:39:30;;;;;;;0.15;0.13;;;;;;;;;;4875785;29;20071;-69
2022/06/29 12:42:02;;;;;;;0.47;0.20;;;;;;;;;;4875611;29;20387;-70
2022/06/29 12:44:33;;;;;;;0.20;0.10;;;;;;;;;;4838453;29;20081;-70
2022/06/29 12:47:03;;;;;;;3.90;0.20;;;;;;;;;;4838701;29;20238;-69
2022/06/29 12:49:33;;;;;;;1.23;0.40;;;;;;;;;;4838485;29;20069;-70
2022/06/29 12:52:04;;;;;;;2.15;0.70;;;;;;;;;;4838565;29;20065;-69
2022/06/29 12:54:35;;;;;;;1.55;0.50;;;;;;;;;;4838613;29;20062;-70
2022/06/29 12:57:06;;;;;;;0.77;0.30;;;;;;;;;;4820232;29;20543;-69
2022/06/29 12:59:35;;;;;;;1.38;0.45;;;;;;;;;;4820444;29;20069;-70
2022/06/29 13:02:07;;;;;;;1.17;0.40;;;;;;;;;;4842393;29;20068;-70
2022/06/29 13:04:38;;;;;;;1.30;0.70;;;;;;;;;;4856571;29;20054;-70
2022/06/29 13:07:09;;;;;;;2.00;0.55;;;;;;;;;;4856670;29;20061;-70
2022/06/29 13:09:39;;;;;;;1.08;0.57;;;;;;;;;;4826207;29;20656;-70
2022/06/29 13:12:09;;;;;;;2.97;1.13;;;;;;;;;;4811669;29;20053;-70
2022/06/29 13:14:39;;;;;;;1.65;0.43;;;;;;;;;;4856868;29;20065;-70
2022/06/29 13:17:10;;;;;;;1.92;0.70;;;;;;;;;;4856768;29;20430;-70
2022/06/29 13:19:41;;;;;;;1.95;0.88;;;;;;;;;;4826307;29;20469;-70
2022/06/29 13:22:13;;;;;;;2.33;0.98;;;;;;;;;;4782191;29;20581;-70
2022/06/29 13:24:43;;;;;;;1.90;0.95;;;;;;;;;;4841494;29;20050;-70
2022/06/29 13:27:14;;;;;;;1.02;0.52;;;;;;;;;;4841538;29;20049;-70
2022/06/29 13:29:45;;;;;;;1.15;0.52;;;;;;;;;;4841542;29;20062;-70
2022/06/29 13:32:16;;;;;;;7.68;2.08;;;;;;;;;;4856852;29;20058;-70
2022/06/29 13:34:46;;;;;;;3.78;0.80;;;;;;;;;;4835135;29;20068;-70
2022/06/29 13:37:16;;;;;;;2.20;0.70;;;;;;;;;;4814502;29;20425;-70
2022/06/29 13:39:47;;;;;;;22.00;8.13;;;;;;;;;;4874838;29;20580;-70
2022/06/29 13:42:17;;;;;;;11.82;4.45;;;;;;;;;;4860059;29;20060;-69
2022/06/29 13:44:47;;;;;;;2.42;0.90;;;;;;;;;;4895935;29;20068;-71
2022/06/29 13:47:17;;;;;;;1.25;0.65;;;;;;;;;;4896076;29;20051;-70
2022/06/29 13:49:49;;;;;;;0.70;0.32;;;;;;;;;;4896019;29;20052;-70
2022/06/29 13:52:19;;;;;;;15.00;8.35;;;;;;;;;;4862957;29;20056;-69
2022/06/29 13:54:49;;;;;;;0.82;0.50;;;;;;;;;;4896149;29;20066;-70
2022/06/29 13:57:19;;;;;;;1.92;0.55;;;;;;;;;;4896069;29;20048;-70
2022/06/29 13:59:49;;;;;;;0.98;0.40;;;;;;;;;;4895731;29;20048;-70
2022/06/29 14:02:20;;;;;;;0.10;0.10;;;;;;;;;;4897941;29;20437;-70
2022/06/29 14:04:50;;;;;;;0.38;0.20;;;;;;;;;;4843718;29;20049;-69
2022/06/29 14:07:22;;;;;;;2.58;1.10;;;;;;;;;;4841008;29;20533;-70
2022/06/29 14:10:12;;;;;;;1.33;0.43;;;;;;;;;;4841315;29;20558;-70
2022/06/29 14:12:44;;;;;;;1.65;0.60;;;;;;;;;;4841241;29;20137;-70
2022/06/29 14:15:15;;;;;;;4.78;1.20;;;;;;;;;;4841120;29;20054;-69
2022/06/29 14:17:46;;;;;;;0.90;0.32;;;;;;;;;;4825771;29;20423;-70
2022/06/29 14:20:16;;;;;;;0.73;0.43;;;;;;;;;;4825977;29;20070;-70
2022/06/29 14:22:47;;;;;;;1.67;0.70;;;;;;;;;;4822377;29;20054;-70
2022/06/29 14:25:17;;;;;;;2.90;0.98;;;;;;;;;;4776975;29;20062;-70
2022/06/29 14:27:48;;;;;;;3.53;1.02;;;;;;;;;;4792309;29;20061;-70
2022/06/29 14:30:18;;;;;;;3.65;1.83;;;;;;;;;;4792332;29;20061;-70
2022/06/29 14:32:48;;;;;;;4.60;1.80;;;;;;;;;;4763174;29;20069;-70
2022/06/29 14:35:19;;;;;;;0.80;0.30;;;;;;;;;;4822485;29;20062;-71
2022/06/29 14:37:49;;;;;;;0.95;0.40;;;;;;;;;;4822561;29;20058;-70
2022/06/29 14:40:19;;;;;;;0.82;0.40;;;;;;;;;;4822277;29;20063;-70
2022/06/29 14:42:50;;;;;;;0.30;0.10;;;;;;;;;;4822266;29;20054;-70
2022/06/29 14:45:20;;;;;;;22.45;10.90;;;;;;;;;;4813265;29;20095;-71
2022/06/29 14:47:50;;;;;;;7.32;3.67;;;;;;;;;;4877576;29;20057;-68
2022/06/29 14:50:22;;;;;;;1.13;0.52;;;;;;;;;;4858734;29;20053;-70
2022/06/29 14:52:53;;;;;;;0.63;0.43;;;;;;;;;;4828464;29;20061;-70
2022/06/29 14:55:24;;;;;;;0.90;0.40;;;;;;;;;;4858755;29;20521;-69
2022/06/29 14:57:55;;;;;;;0.50;0.30;;;;;;;;;;4858778;29;20068;-71
2022/06/29 15:00:25;;;;;;;1.13;0.30;;;;;;;;;;4852396;29;20053;-70
2022/06/29 15:02:55;;;;;;;0.85;0.30;;;;;;;;;;4846646;29;20450;-70
2022/06/29 15:05:26;;;;;;;1.00;0.40;;;;;;;;;;4877000;29;20053;-69
2022/06/29 15:07:56;;;;;;;1.75;0.60;;;;;;;;;;4846502;29;20061;-69
2022/06/29 15:10:28;;;;;;;0.82;0.40;;;;;;;;;;4846301;29;20056;-69
2022/06/29 15:12:58;;;;;;;4.43;1.00;;;;;;;;;;4831245;29;20616;-69
2022/06/29 15:15:31;;;;;;;2.45;0.50;;;;;;;;;;4876960;29;20540;-70
2022/06/29 15:18:01;;;;;;;1.13;0.50;;;;;;;;;;4877195;29;20052;-69
2022/06/29 15:20:31;;;;;;;2.53;0.65;;;;;;;;;;4846081;29;20084;-69
2022/06/29 15:23:01;;;;;;;6.43;2.47;;;;;;;;;;4845899;29;20060;-69
2022/06/29 15:25:31;;;;;;;3.08;1.50;;;;;;;;;;4845811;29;20080;-69
2022/06/29 15:28:05;;;;;;;2.35;1.17;;;;;;;;;;4888095;29;20064;-69
2022/06/29 15:30:42;;;;;;;5.68;1.98;;;;;;;;;;4897737;29;20041;-69
2022/06/29 15:38:45;;;;;;;1.70;0.80;;;;;;;;;;4895836;29;20061;-69
2022/06/29 15:38:51;;;;;;;1.45;0.40;;;;;;;;;;4897533;29;20047;-70
2022/06/29 15:41:21;;;;;;;1.20;0.50;;;;;;;;;;4880123;29;20059;-69